sensor_id;sensor_type;location;lat;lon;timestamp;temperature;humidity
47532;DHT22;33273;52.254;7.988;2023-03-12T00:01:45;-1.70;87.20
47532;DHT22;33273;52.254;7.988;2023-03-12T00:04:12;-1.70;87.30
47532;DHT22;33273;52.254;7.988;2023-03-12T00:06:37;-1.70;87.40
47532;DHT22;33273;52.254;7.988;2023-03-12T00:09:03;-1.70;87.60
47532;DHT22;33273;52.254;7.988;2023-03-12T00:11:30;-1.70;87.80
47532;DHT22;33273;52.254;7.988;2023-03-12T00:13:56;-1.80;87.80
47532;DHT22;33273;52.254;7.988;2023-03-12T00:16:24;-1.80;88.00
47532;DHT22;33273;52.254;7.988;2023-03-12T00:18:52;-1.80;88.10
47532;DHT22;33273;52.254;7.988;2023-03-12T00:21:18;-1.80;88.30
47532;DHT22;33273;52.254;7.988;2023-03-12T00:23:46;-1.80;88.40
47532;DHT22;33273;52.254;7.988;2023-03-12T00:26:12;-1.80;88.50
47532;DHT22;33273;52.254;7.988;2023-03-12T00:28:38;-1.80;88.60
47532;DHT22;33273;52.254;7.988;2023-03-12T00:31:21;-1.80;88.50
47532;DHT22;33273;52.254;7.988;2023-03-12T00:33:47;-1.80;88.60
47532;DHT22;33273;52.254;7.988;2023-03-12T00:36:16;-1.80;88.80
47532;DHT22;33273;52.254;7.988;2023-03-12T00:38:42;-1.80;88.80
47532;DHT22;33273;52.254;7.988;2023-03-12T00:41:08;-1.90;88.80
47532;DHT22;33273;52.254;7.988;2023-03-12T00:43:34;-1.80;88.80
47532;DHT22;33273;52.254;7.988;2023-03-12T00:46:00;-1.90;88.80
47532;DHT22;33273;52.254;7.988;2023-03-12T00:48:27;-1.90;88.90
47532;DHT22;33273;52.254;7.988;2023-03-12T00:50:53;-1.90;88.90
47532;DHT22;33273;52.254;7.988;2023-03-12T00:53:19;-1.90;89.00
47532;DHT22;33273;52.254;7.988;2023-03-12T00:55:44;-1.90;89.00
47532;DHT22;33273;52.254;7.988;2023-03-12T00:58:10;-1.90;89.10
47532;DHT22;33273;52.254;7.988;2023-03-12T01:00:36;-1.90;89.10
47532;DHT22;33273;52.254;7.988;2023-03-12T01:03:02;-1.90;89.40
47532;DHT22;33273;52.254;7.988;2023-03-12T01:05:28;-1.90;89.80
47532;DHT22;33273;52.254;7.988;2023-03-12T01:07:56;-1.90;89.80
47532;DHT22;33273;52.254;7.988;2023-03-12T01:10:22;-1.90;89.90
47532;DHT22;33273;52.254;7.988;2023-03-12T01:12:48;-1.90;90.00
47532;DHT22;33273;52.254;7.988;2023-03-12T01:15:14;-1.90;89.90
47532;DHT22;33273;52.254;7.988;2023-03-12T01:17:40;-1.90;89.90
47532;DHT22;33273;52.254;7.988;2023-03-12T01:20:08;-1.90;89.70
47532;DHT22;33273;52.254;7.988;2023-03-12T01:22:34;-1.90;89.70
47532;DHT22;33273;52.254;7.988;2023-03-12T01:25:02;-1.90;89.60
47532;DHT22;33273;52.254;7.988;2023-03-12T01:27:27;-2.00;89.40
47532;DHT22;33273;52.254;7.988;2023-03-12T01:29:53;-2.00;89.40
47532;DHT22;33273;52.254;7.988;2023-03-12T01:32:20;-2.00;89.40
47532;DHT22;33273;52.254;7.988;2023-03-12T01:34:45;-2.00;89.50
47532;DHT22;33273;52.254;7.988;2023-03-12T01:37:11;-2.00;89.60
47532;DHT22;33273;52.254;7.988;2023-03-12T01:39:37;-2.00;89.60
47532;DHT22;33273;52.254;7.988;2023-03-12T01:42:03;-2.00;89.70
47532;DHT22;33273;52.254;7.988;2023-03-12T01:44:29;-2.00;89.70
47532;DHT22;33273;52.254;7.988;2023-03-12T01:46:54;-2.00;89.90
47532;DHT22;33273;52.254;7.988;2023-03-12T01:56:53;-2.10;90.20
47532;DHT22;33273;52.254;7.988;2023-03-12T01:59:21;-2.10;90.30
47532;DHT22;33273;52.254;7.988;2023-03-12T02:01:48;-2.10;90.40
47532;DHT22;33273;52.254;7.988;2023-03-12T02:04:15;-2.10;90.50
47532;DHT22;33273;52.254;7.988;2023-03-12T02:06:44;-2.10;90.50
47532;DHT22;33273;52.254;7.988;2023-03-12T02:09:11;-2.10;90.50
47532;DHT22;33273;52.254;7.988;2023-03-12T02:11:37;-2.10;90.50
47532;DHT22;33273;52.254;7.988;2023-03-12T02:14:03;-2.10;90.50
47532;DHT22;33273;52.254;7.988;2023-03-12T02:16:29;-2.20;90.30
47532;DHT22;33273;52.254;7.988;2023-03-12T02:18:58;-2.20;90.20
47532;DHT22;33273;52.254;7.988;2023-03-12T02:21:27;-2.20;90.20
47532;DHT22;33273;52.254;7.988;2023-03-12T02:23:55;-2.10;90.10
47532;DHT22;33273;52.254;7.988;2023-03-12T02:26:25;-2.10;90.30
47532;DHT22;33273;52.254;7.988;2023-03-12T02:28:52;-2.20;90.20
47532;DHT22;33273;52.254;7.988;2023-03-12T02:31:20;-2.20;90.20
47532;DHT22;33273;52.254;7.988;2023-03-12T02:33:47;-2.20;90.20
47532;DHT22;33273;52.254;7.988;2023-03-12T02:36:13;-2.20;90.10
47532;DHT22;33273;52.254;7.988;2023-03-12T02:38:44;-2.20;90.10
47532;DHT22;33273;52.254;7.988;2023-03-12T02:41:32;-2.20;90.20
47532;DHT22;33273;52.254;7.988;2023-03-12T02:46:25;-2.20;90.00
47532;DHT22;33273;52.254;7.988;2023-03-12T02:48:52;-2.20;90.00
47532;DHT22;33273;52.254;7.988;2023-03-12T02:51:18;-2.20;90.00
47532;DHT22;33273;52.254;7.988;2023-03-12T02:53:45;-2.20;90.00
47532;DHT22;33273;52.254;7.988;2023-03-12T02:56:11;-2.20;89.90
47532;DHT22;33273;52.254;7.988;2023-03-12T02:58:37;-2.20;89.80
47532;DHT22;33273;52.254;7.988;2023-03-12T03:01:03;-2.20;89.90
47532;DHT22;33273;52.254;7.988;2023-03-12T03:03:29;-2.20;89.70
47532;DHT22;33273;52.254;7.988;2023-03-12T03:05:55;-2.10;89.50
47532;DHT22;33273;52.254;7.988;2023-03-12T03:08:20;-2.10;89.10
47532;DHT22;33273;52.254;7.988;2023-03-12T03:10:49;-2.10;88.80
47532;DHT22;33273;52.254;7.988;2023-03-12T03:13:15;-2.10;88.60
47532;DHT22;33273;52.254;7.988;2023-03-12T03:15:40;-2.10;88.70
47532;DHT22;33273;52.254;7.988;2023-03-12T03:18:06;-2.00;88.70
47532;DHT22;33273;52.254;7.988;2023-03-12T03:20:32;-2.00;88.90
47532;DHT22;33273;52.254;7.988;2023-03-12T03:22:58;-2.00;89.10
47532;DHT22;33273;52.254;7.988;2023-03-12T03:25:23;-2.00;89.40
47532;DHT22;33273;52.254;7.988;2023-03-12T03:27:49;-2.00;89.50
47532;DHT22;33273;52.254;7.988;2023-03-12T03:30:15;-1.90;89.80
47532;DHT22;33273;52.254;7.988;2023-03-12T03:32:44;-1.90;89.70
47532;DHT22;33273;52.254;7.988;2023-03-12T03:35:11;-1.80;89.50
47532;DHT22;33273;52.254;7.988;2023-03-12T03:37:37;-1.80;89.00
47532;DHT22;33273;52.254;7.988;2023-03-12T03:40:03;-1.80;87.80
47532;DHT22;33273;52.254;7.988;2023-03-12T03:42:30;-1.70;87.10
47532;DHT22;33273;52.254;7.988;2023-03-12T03:44:56;-1.70;86.60
47532;DHT22;33273;52.254;7.988;2023-03-12T03:47:22;-1.60;86.20
47532;DHT22;33273;52.254;7.988;2023-03-12T03:49:47;-1.60;85.70
47532;DHT22;33273;52.254;7.988;2023-03-12T03:52:14;-1.60;85.20
47532;DHT22;33273;52.254;7.988;2023-03-12T03:54:40;-1.60;85.00
47532;DHT22;33273;52.254;7.988;2023-03-12T03:57:06;-1.60;84.70
47532;DHT22;33273;52.254;7.988;2023-03-12T03:59:32;-1.50;84.70
47532;DHT22;33273;52.254;7.988;2023-03-12T04:01:58;-1.50;84.70
47532;DHT22;33273;52.254;7.988;2023-03-12T04:04:24;-1.50;84.60
47532;DHT22;33273;52.254;7.988;2023-03-12T04:06:50;-1.50;84.70
47532;DHT22;33273;52.254;7.988;2023-03-12T04:09:16;-1.50;84.70
47532;DHT22;33273;52.254;7.988;2023-03-12T04:11:42;-1.50;84.90
47532;DHT22;33273;52.254;7.988;2023-03-12T04:14:10;-1.60;84.90
47532;DHT22;33273;52.254;7.988;2023-03-12T04:16:38;-1.50;85.20
47532;DHT22;33273;52.254;7.988;2023-03-12T04:19:04;-1.50;85.30
47532;DHT22;33273;52.254;7.988;2023-03-12T04:21:30;-1.50;85.30
47532;DHT22;33273;52.254;7.988;2023-03-12T04:23:56;-1.50;85.40
47532;DHT22;33273;52.254;7.988;2023-03-12T04:26:26;-1.50;85.50
47532;DHT22;33273;52.254;7.988;2023-03-12T04:28:54;-1.50;85.50
47532;DHT22;33273;52.254;7.988;2023-03-12T04:31:20;-1.50;85.50
47532;DHT22;33273;52.254;7.988;2023-03-12T04:33:50;-1.50;85.50
47532;DHT22;33273;52.254;7.988;2023-03-12T04:36:16;-1.40;85.60
47532;DHT22;33273;52.254;7.988;2023-03-12T04:38:45;-1.40;85.70
47532;DHT22;33273;52.254;7.988;2023-03-12T04:41:13;-1.40;85.60
47532;DHT22;33273;52.254;7.988;2023-03-12T04:43:47;-1.40;85.10
47532;DHT22;33273;52.254;7.988;2023-03-12T04:46:14;-1.30;85.00
47532;DHT22;33273;52.254;7.988;2023-03-12T04:48:42;-1.30;84.80
47532;DHT22;33273;52.254;7.988;2023-03-12T04:51:07;-1.20;84.20
47532;DHT22;33273;52.254;7.988;2023-03-12T04:53:33;-1.20;82.20
47532;DHT22;33273;52.254;7.988;2023-03-12T04:56:01;-1.10;81.40
47532;DHT22;33273;52.254;7.988;2023-03-12T04:58:27;-1.10;80.80
47532;DHT22;33273;52.254;7.988;2023-03-12T05:00:54;-1.10;80.10
47532;DHT22;33273;52.254;7.988;2023-03-12T05:03:20;-1.10;79.50
47532;DHT22;33273;52.254;7.988;2023-03-12T05:05:45;-1.00;79.20
47532;DHT22;33273;52.254;7.988;2023-03-12T05:08:15;-1.10;79.20
47532;DHT22;33273;52.254;7.988;2023-03-12T05:10:41;-1.00;79.40
47532;DHT22;33273;52.254;7.988;2023-03-12T05:13:13;-1.00;79.40
47532;DHT22;33273;52.254;7.988;2023-03-12T05:15:39;-1.00;80.10
47532;DHT22;33273;52.254;7.988;2023-03-12T05:18:05;-1.00;79.80
47532;DHT22;33273;52.254;7.988;2023-03-12T05:20:31;-1.00;79.10
47532;DHT22;33273;52.254;7.988;2023-03-12T05:22:57;-0.90;78.80
47532;DHT22;33273;52.254;7.988;2023-03-12T05:25:23;-0.90;78.20
47532;DHT22;33273;52.254;7.988;2023-03-12T05:27:49;-0.90;77.50
47532;DHT22;33273;52.254;7.988;2023-03-12T05:30:14;-0.90;77.20
47532;DHT22;33273;52.254;7.988;2023-03-12T05:32:40;-0.90;77.20
47532;DHT22;33273;52.254;7.988;2023-03-12T05:35:06;-0.90;77.50
47532;DHT22;33273;52.254;7.988;2023-03-12T05:37:33;-0.90;77.70
47532;DHT22;33273;52.254;7.988;2023-03-12T05:39:59;-0.90;77.00
47532;DHT22;33273;52.254;7.988;2023-03-12T05:42:26;-0.90;76.50
47532;DHT22;33273;52.254;7.988;2023-03-12T05:44:53;-0.80;76.20
47532;DHT22;33273;52.254;7.988;2023-03-12T05:47:20;-0.80;75.80
47532;DHT22;33273;52.254;7.988;2023-03-12T05:49:47;-0.80;75.10
47532;DHT22;33273;52.254;7.988;2023-03-12T05:52:12;-0.80;74.60
47532;DHT22;33273;52.254;7.988;2023-03-12T05:54:38;-0.80;75.00
47532;DHT22;33273;52.254;7.988;2023-03-12T05:57:05;-0.70;75.20
47532;DHT22;33273;52.254;7.988;2023-03-12T05:59:31;-0.70;74.30
47532;DHT22;33273;52.254;7.988;2023-03-12T06:01:57;-0.60;73.80
47532;DHT22;33273;52.254;7.988;2023-03-12T06:04:23;-0.60;73.00
47532;DHT22;33273;52.254;7.988;2023-03-12T06:06:52;-0.60;72.50
47532;DHT22;33273;52.254;7.988;2023-03-12T06:09:18;-0.50;72.20
47532;DHT22;33273;52.254;7.988;2023-03-12T06:11:44;-0.50;71.60
47532;DHT22;33273;52.254;7.988;2023-03-12T06:14:10;-0.50;71.70
47532;DHT22;33273;52.254;7.988;2023-03-12T06:16:36;-0.40;71.00
47532;DHT22;33273;52.254;7.988;2023-03-12T06:19:03;-0.40;70.80
47532;DHT22;33273;52.254;7.988;2023-03-12T06:21:31;-0.30;70.80
47532;DHT22;33273;52.254;7.988;2023-03-12T06:23:58;-0.30;70.20
47532;DHT22;33273;52.254;7.988;2023-03-12T06:26:39;-0.30;70.50
47532;DHT22;33273;52.254;7.988;2023-03-12T06:29:05;-0.20;70.20
47532;DHT22;33273;52.254;7.988;2023-03-12T06:31:31;-0.20;70.40
47532;DHT22;33273;52.254;7.988;2023-03-12T06:33:57;-0.20;71.00
47532;DHT22;33273;52.254;7.988;2023-03-12T06:36:22;-0.10;70.60
47532;DHT22;33273;52.254;7.988;2023-03-12T06:38:49;-0.10;70.40
47532;DHT22;33273;52.254;7.988;2023-03-12T06:41:16;-0.10;70.30
47532;DHT22;33273;52.254;7.988;2023-03-12T06:43:43;0.00;70.10
47532;DHT22;33273;52.254;7.988;2023-03-12T06:46:11;0.10;70.00
47532;DHT22;33273;52.254;7.988;2023-03-12T06:48:46;0.20;68.60
47532;DHT22;33273;52.254;7.988;2023-03-12T06:51:13;0.20;68.30
47532;DHT22;33273;52.254;7.988;2023-03-12T06:53:41;0.40;64.20
47532;DHT22;33273;52.254;7.988;2023-03-12T06:56:07;0.50;65.20
47532;DHT22;33273;52.254;7.988;2023-03-12T06:58:33;0.60;65.80
47532;DHT22;33273;52.254;7.988;2023-03-12T07:00:59;0.70;64.40
47532;DHT22;33273;52.254;7.988;2023-03-12T07:03:25;0.80;62.60
47532;DHT22;33273;52.254;7.988;2023-03-12T07:05:50;0.80;62.60
47532;DHT22;33273;52.254;7.988;2023-03-12T07:08:16;0.90;63.10
47532;DHT22;33273;52.254;7.988;2023-03-12T07:10:43;0.90;61.30
47532;DHT22;33273;52.254;7.988;2023-03-12T07:13:09;1.00;60.70
47532;DHT22;33273;52.254;7.988;2023-03-12T07:15:35;1.10;60.50
47532;DHT22;33273;52.254;7.988;2023-03-12T07:18:04;1.10;60.40
47532;DHT22;33273;52.254;7.988;2023-03-12T07:20:31;1.10;58.80
47532;DHT22;33273;52.254;7.988;2023-03-12T07:22:58;1.10;59.30
47532;DHT22;33273;52.254;7.988;2023-03-12T07:25:23;1.10;59.90
47532;DHT22;33273;52.254;7.988;2023-03-12T07:27:49;1.20;59.50
47532;DHT22;33273;52.254;7.988;2023-03-12T07:30:15;1.20;58.40
47532;DHT22;33273;52.254;7.988;2023-03-12T07:32:41;1.30;58.60
47532;DHT22;33273;52.254;7.988;2023-03-12T07:35:07;1.30;59.00
47532;DHT22;33273;52.254;7.988;2023-03-12T07:37:34;1.30;59.30
47532;DHT22;33273;52.254;7.988;2023-03-12T07:39:59;1.30;58.30
47532;DHT22;33273;52.254;7.988;2023-03-12T07:42:25;1.40;59.00
47532;DHT22;33273;52.254;7.988;2023-03-12T07:44:55;1.40;59.50
47532;DHT22;33273;52.254;7.988;2023-03-12T07:47:21;1.40;57.50
47532;DHT22;33273;52.254;7.988;2023-03-12T07:49:50;1.40;58.70
47532;DHT22;33273;52.254;7.988;2023-03-12T07:52:16;1.40;57.80
47532;DHT22;33273;52.254;7.988;2023-03-12T07:54:45;1.50;58.30
47532;DHT22;33273;52.254;7.988;2023-03-12T07:57:11;1.60;59.00
47532;DHT22;33273;52.254;7.988;2023-03-12T07:59:38;1.60;60.10
47532;DHT22;33273;52.254;7.988;2023-03-12T08:02:04;1.70;60.20
47532;DHT22;33273;52.254;7.988;2023-03-12T08:04:30;1.80;60.70
47532;DHT22;33273;52.254;7.988;2023-03-12T08:06:55;1.80;59.70
47532;DHT22;33273;52.254;7.988;2023-03-12T08:09:22;1.80;58.60
47532;DHT22;33273;52.254;7.988;2023-03-12T08:11:49;1.90;58.80
47532;DHT22;33273;52.254;7.988;2023-03-12T08:14:14;1.90;59.40
47532;DHT22;33273;52.254;7.988;2023-03-12T08:16:40;2.00;57.40
47532;DHT22;33273;52.254;7.988;2023-03-12T08:19:06;1.90;56.40
47532;DHT22;33273;52.254;7.988;2023-03-12T08:21:32;2.00;57.50
47532;DHT22;33273;52.254;7.988;2023-03-12T08:23:58;2.10;56.90
47532;DHT22;33273;52.254;7.988;2023-03-12T08:26:24;2.20;59.20
47532;DHT22;33273;52.254;7.988;2023-03-12T08:28:50;2.20;58.80
47532;DHT22;33273;52.254;7.988;2023-03-12T08:31:15;2.20;58.50
47532;DHT22;33273;52.254;7.988;2023-03-12T08:33:41;2.20;58.20
47532;DHT22;33273;52.254;7.988;2023-03-12T08:36:08;2.30;59.00
47532;DHT22;33273;52.254;7.988;2023-03-12T08:38:34;2.20;57.40
47532;DHT22;33273;52.254;7.988;2023-03-12T08:41:00;2.20;57.30
47532;DHT22;33273;52.254;7.988;2023-03-12T08:43:27;2.20;57.70
47532;DHT22;33273;52.254;7.988;2023-03-12T08:45:57;2.20;58.60
47532;DHT22;33273;52.254;7.988;2023-03-12T08:48:23;2.20;59.40
47532;DHT22;33273;52.254;7.988;2023-03-12T08:50:48;2.30;60.70
47532;DHT22;33273;52.254;7.988;2023-03-12T08:53:15;2.30;60.40
47532;DHT22;33273;52.254;7.988;2023-03-12T08:55:41;2.30;61.80
47532;DHT22;33273;52.254;7.988;2023-03-12T08:58:06;2.30;62.90
47532;DHT22;33273;52.254;7.988;2023-03-12T09:00:32;2.30;63.30
47532;DHT22;33273;52.254;7.988;2023-03-12T09:02:58;2.30;63.60
47532;DHT22;33273;52.254;7.988;2023-03-12T09:05:24;2.30;64.70
47532;DHT22;33273;52.254;7.988;2023-03-12T09:07:52;2.40;65.90
47532;DHT22;33273;52.254;7.988;2023-03-12T09:10:19;2.30;66.90
47532;DHT22;33273;52.254;7.988;2023-03-12T09:12:54;2.40;67.80
47532;DHT22;33273;52.254;7.988;2023-03-12T09:15:19;2.30;69.00
47532;DHT22;33273;52.254;7.988;2023-03-12T09:17:45;2.30;70.10
47532;DHT22;33273;52.254;7.988;2023-03-12T09:20:12;2.20;71.60
47532;DHT22;33273;52.254;7.988;2023-03-12T09:22:39;2.20;73.00
47532;DHT22;33273;52.254;7.988;2023-03-12T09:25:06;2.20;73.70
47532;DHT22;33273;52.254;7.988;2023-03-12T09:27:38;2.20;74.30
47532;DHT22;33273;52.254;7.988;2023-03-12T09:30:05;2.20;75.00
47532;DHT22;33273;52.254;7.988;2023-03-12T09:32:31;2.30;75.80
47532;DHT22;33273;52.254;7.988;2023-03-12T09:34:57;2.20;76.10
47532;DHT22;33273;52.254;7.988;2023-03-12T09:37:23;2.20;76.90
47532;DHT22;33273;52.254;7.988;2023-03-12T09:39:49;2.20;77.60
47532;DHT22;33273;52.254;7.988;2023-03-12T09:45:19;2.20;79.50
47532;DHT22;33273;52.254;7.988;2023-03-12T09:47:48;2.10;80.30
47532;DHT22;33273;52.254;7.988;2023-03-12T09:50:31;2.00;80.90
47532;DHT22;33273;52.254;7.988;2023-03-12T09:55:37;2.10;83.80
47532;DHT22;33273;52.254;7.988;2023-03-12T09:58:03;2.10;84.60
47532;DHT22;33273;52.254;7.988;2023-03-12T10:00:30;2.10;85.10
47532;DHT22;33273;52.254;7.988;2023-03-12T10:10:52;2.20;87.90
47532;DHT22;33273;52.254;7.988;2023-03-12T10:25:57;2.30;91.30
47532;DHT22;33273;52.254;7.988;2023-03-12T10:31:04;2.40;92.10
47532;DHT22;33273;52.254;7.988;2023-03-12T10:33:46;2.40;91.70
47532;DHT22;33273;52.254;7.988;2023-03-12T10:36:14;2.40;91.90
47532;DHT22;33273;52.254;7.988;2023-03-12T10:38:41;2.40;92.20
47532;DHT22;33273;52.254;7.988;2023-03-12T10:41:12;2.50;92.70
47532;DHT22;33273;52.254;7.988;2023-03-12T10:43:38;2.40;92.60
47532;DHT22;33273;52.254;7.988;2023-03-12T10:48:30;2.40;93.80
47532;DHT22;33273;52.254;7.988;2023-03-12T10:51:03;2.40;94.60
47532;DHT22;33273;52.254;7.988;2023-03-12T10:53:30;2.40;95.20
47532;DHT22;33273;52.254;7.988;2023-03-12T10:56:01;2.50;96.10
47532;DHT22;33273;52.254;7.988;2023-03-12T10:58:31;2.50;96.50
47532;DHT22;33273;52.254;7.988;2023-03-12T11:00:58;2.60;97.50
47532;DHT22;33273;52.254;7.988;2023-03-12T11:03:25;2.60;97.80
47532;DHT22;33273;52.254;7.988;2023-03-12T11:05:52;2.60;98.30
47532;DHT22;33273;52.254;7.988;2023-03-12T11:10:54;2.60;98.50
47532;DHT22;33273;52.254;7.988;2023-03-12T11:15:46;2.70;99.90
47532;DHT22;33273;52.254;7.988;2023-03-12T11:20:41;2.80;99.90
47532;DHT22;33273;52.254;7.988;2023-03-12T11:23:16;2.90;99.90
47532;DHT22;33273;52.254;7.988;2023-03-12T11:25:50;2.90;99.90
47532;DHT22;33273;52.254;7.988;2023-03-12T11:28:17;2.90;99.90
47532;DHT22;33273;52.254;7.988;2023-03-12T11:30:45;2.90;99.90
47532;DHT22;33273;52.254;7.988;2023-03-12T11:33:12;3.00;99.90
47532;DHT22;33273;52.254;7.988;2023-03-12T11:38:21;3.10;99.90
47532;DHT22;33273;52.254;7.988;2023-03-12T11:48:53;3.20;99.90
47532;DHT22;33273;52.254;7.988;2023-03-12T11:54:08;3.30;99.90
47532;DHT22;33273;52.254;7.988;2023-03-12T11:56:38;3.30;99.90
47532;DHT22;33273;52.254;7.988;2023-03-12T11:59:13;3.50;99.90
47532;DHT22;33273;52.254;7.988;2023-03-12T12:17:29;3.70;99.90
47532;DHT22;33273;52.254;7.988;2023-03-12T12:20:02;3.70;99.90
47532;DHT22;33273;52.254;7.988;2023-03-12T12:22:40;3.80;99.90
47532;DHT22;33273;52.254;7.988;2023-03-12T12:30:22;3.90;99.90
47532;DHT22;33273;52.254;7.988;2023-03-12T12:35:37;4.00;99.90
47532;DHT22;33273;52.254;7.988;2023-03-12T12:41:07;4.10;99.90
47532;DHT22;33273;52.254;7.988;2023-03-12T12:43:41;4.20;99.90
47532;DHT22;33273;52.254;7.988;2023-03-12T12:46:10;4.30;99.90
47532;DHT22;33273;52.254;7.988;2023-03-12T12:48:40;4.50;99.90
47532;DHT22;33273;52.254;7.988;2023-03-12T12:51:08;4.60;99.90
47532;DHT22;33273;52.254;7.988;2023-03-12T12:56:55;4.90;99.90
47532;DHT22;33273;52.254;7.988;2023-03-12T13:01:53;5.10;99.90
47532;DHT22;33273;52.254;7.988;2023-03-12T13:04:31;5.20;99.90
47532;DHT22;33273;52.254;7.988;2023-03-12T13:12:12;5.40;99.90
47532;DHT22;33273;52.254;7.988;2023-03-12T13:14:39;5.50;99.90
47532;DHT22;33273;52.254;7.988;2023-03-12T13:17:06;5.60;99.90
47532;DHT22;33273;52.254;7.988;2023-03-12T13:19:32;5.60;99.90
47532;DHT22;33273;52.254;7.988;2023-03-12T13:29:42;5.90;99.90
47532;DHT22;33273;52.254;7.988;2023-03-12T13:32:09;6.00;99.90
47532;DHT22;33273;52.254;7.988;2023-03-12T13:34:55;6.00;99.90
47532;DHT22;33273;52.254;7.988;2023-03-12T13:37:28;6.10;99.90
47532;DHT22;33273;52.254;7.988;2023-03-12T13:39:57;6.10;99.90
47532;DHT22;33273;52.254;7.988;2023-03-12T13:42:26;6.20;99.90
47532;DHT22;33273;52.254;7.988;2023-03-12T13:45:23;6.20;99.90
47532;DHT22;33273;52.254;7.988;2023-03-12T13:47:44;6.20;99.90
47532;DHT22;33273;52.254;7.988;2023-03-12T13:50:14;6.10;99.90
47532;DHT22;33273;52.254;7.988;2023-03-12T13:57:44;6.10;99.90
47532;DHT22;33273;52.254;7.988;2023-03-12T14:00:19;6.10;99.90
47532;DHT22;33273;52.254;7.988;2023-03-12T14:02:51;6.10;99.90
47532;DHT22;33273;52.254;7.988;2023-03-12T14:05:17;6.10;99.90
47532;DHT22;33273;52.254;7.988;2023-03-12T14:15:21;6.30;99.90
47532;DHT22;33273;52.254;7.988;2023-03-12T14:18:32;6.30;99.90
47532;DHT22;33273;52.254;7.988;2023-03-12T14:20:38;6.30;99.90
47532;DHT22;33273;52.254;7.988;2023-03-12T14:23:07;6.30;99.90
47532;DHT22;33273;52.254;7.988;2023-03-12T14:25:35;6.30;99.90
47532;DHT22;33273;52.254;7.988;2023-03-12T14:28:03;6.30;99.90
47532;DHT22;33273;52.254;7.988;2023-03-12T14:30:40;6.30;99.90
47532;DHT22;33273;52.254;7.988;2023-03-12T14:33:06;6.30;99.90
47532;DHT22;33273;52.254;7.988;2023-03-12T14:35:40;6.30;99.90
47532;DHT22;33273;52.254;7.988;2023-03-12T14:38:10;6.30;99.90
47532;DHT22;33273;52.254;7.988;2023-03-12T14:43:17;6.30;99.90
47532;DHT22;33273;52.254;7.988;2023-03-12T14:45:43;6.40;99.90
47532;DHT22;33273;52.254;7.988;2023-03-12T14:48:09;6.40;99.90
47532;DHT22;33273;52.254;7.988;2023-03-12T14:50:37;6.50;99.90
47532;DHT22;33273;52.254;7.988;2023-03-12T14:53:17;6.60;99.90
47532;DHT22;33273;52.254;7.988;2023-03-12T14:55:43;6.60;99.90
47532;DHT22;33273;52.254;7.988;2023-03-12T14:58:16;6.60;99.90
47532;DHT22;33273;52.254;7.988;2023-03-12T15:00:43;6.70;99.90
47532;DHT22;33273;52.254;7.988;2023-03-12T15:03:14;6.80;99.90
47532;DHT22;33273;52.254;7.988;2023-03-12T15:05:45;6.80;99.90
47532;DHT22;33273;52.254;7.988;2023-03-12T15:08:11;6.80;99.90
47532;DHT22;33273;52.254;7.988;2023-03-12T15:10:37;6.80;99.90
47532;DHT22;33273;52.254;7.988;2023-03-12T15:13:04;6.90;99.90
47532;DHT22;33273;52.254;7.988;2023-03-12T15:18:04;6.90;99.90
47532;DHT22;33273;52.254;7.988;2023-03-12T15:20:31;7.00;99.90
47532;DHT22;33273;52.254;7.988;2023-03-12T15:22:56;7.00;99.90
47532;DHT22;33273;52.254;7.988;2023-03-12T15:25:26;7.10;99.90
47532;DHT22;33273;52.254;7.988;2023-03-12T15:28:06;7.10;99.90
47532;DHT22;33273;52.254;7.988;2023-03-12T15:30:33;7.20;99.90
47532;DHT22;33273;52.254;7.988;2023-03-12T15:35:41;7.30;99.90
47532;DHT22;33273;52.254;7.988;2023-03-12T15:38:17;7.30;99.90
47532;DHT22;33273;52.254;7.988;2023-03-12T15:40:48;7.30;99.90
47532;DHT22;33273;52.254;7.988;2023-03-12T15:43:15;7.40;99.90
47532;DHT22;33273;52.254;7.988;2023-03-12T15:45:42;7.50;99.90
47532;DHT22;33273;52.254;7.988;2023-03-12T15:48:26;7.50;99.90
47532;DHT22;33273;52.254;7.988;2023-03-12T15:50:54;7.50;99.90
47532;DHT22;33273;52.254;7.988;2023-03-12T16:00:51;7.60;99.90
47532;DHT22;33273;52.254;7.988;2023-03-12T16:03:18;7.70;99.90
47532;DHT22;33273;52.254;7.988;2023-03-12T16:05:44;7.70;99.90
47532;DHT22;33273;52.254;7.988;2023-03-12T16:08:14;7.70;99.90
47532;DHT22;33273;52.254;7.988;2023-03-12T16:10:40;7.80;99.90
47532;DHT22;33273;52.254;7.988;2023-03-12T16:13:06;7.80;99.90
47532;DHT22;33273;52.254;7.988;2023-03-12T16:15:37;7.80;99.90
47532;DHT22;33273;52.254;7.988;2023-03-12T16:18:03;7.80;99.90
47532;DHT22;33273;52.254;7.988;2023-03-12T16:20:29;7.80;99.90
47532;DHT22;33273;52.254;7.988;2023-03-12T16:22:55;7.80;99.90
47532;DHT22;33273;52.254;7.988;2023-03-12T16:25:21;7.90;99.90
47532;DHT22;33273;52.254;7.988;2023-03-12T16:27:53;7.90;99.90
47532;DHT22;33273;52.254;7.988;2023-03-12T16:30:24;7.90;99.90
47532;DHT22;33273;52.254;7.988;2023-03-12T16:32:51;7.90;99.90
47532;DHT22;33273;52.254;7.988;2023-03-12T16:35:18;7.90;99.90
47532;DHT22;33273;52.254;7.988;2023-03-12T16:37:44;7.80;99.90
47532;DHT22;33273;52.254;7.988;2023-03-12T16:40:10;7.80;99.90
47532;DHT22;33273;52.254;7.988;2023-03-12T16:42:37;7.80;99.90
47532;DHT22;33273;52.254;7.988;2023-03-12T16:45:06;7.80;99.90
47532;DHT22;33273;52.254;7.988;2023-03-12T16:47:32;7.80;99.90
47532;DHT22;33273;52.254;7.988;2023-03-12T16:50:01;7.80;99.90
47532;DHT22;33273;52.254;7.988;2023-03-12T16:52:27;7.80;99.90
47532;DHT22;33273;52.254;7.988;2023-03-12T16:54:53;7.80;99.90
47532;DHT22;33273;52.254;7.988;2023-03-12T16:57:25;7.80;99.90
47532;DHT22;33273;52.254;7.988;2023-03-12T16:59:52;7.80;99.90
47532;DHT22;33273;52.254;7.988;2023-03-12T17:02:18;7.80;99.90
47532;DHT22;33273;52.254;7.988;2023-03-12T17:04:45;7.80;99.90
47532;DHT22;33273;52.254;7.988;2023-03-12T17:07:11;7.80;99.90
47532;DHT22;33273;52.254;7.988;2023-03-12T17:09:37;7.80;99.90
47532;DHT22;33273;52.254;7.988;2023-03-12T17:12:03;7.80;99.90
47532;DHT22;33273;52.254;7.988;2023-03-12T17:14:29;7.80;99.90
47532;DHT22;33273;52.254;7.988;2023-03-12T17:16:55;7.80;99.90
47532;DHT22;33273;52.254;7.988;2023-03-12T17:19:21;7.70;99.90
47532;DHT22;33273;52.254;7.988;2023-03-12T17:21:47;7.70;99.90
47532;DHT22;33273;52.254;7.988;2023-03-12T17:24:13;7.70;99.90
47532;DHT22;33273;52.254;7.988;2023-03-12T17:26:39;7.70;99.90
47532;DHT22;33273;52.254;7.988;2023-03-12T17:29:05;7.70;99.90
47532;DHT22;33273;52.254;7.988;2023-03-12T17:31:30;7.80;99.90
47532;DHT22;33273;52.254;7.988;2023-03-12T17:33:56;7.70;99.90
47532;DHT22;33273;52.254;7.988;2023-03-12T17:36:22;7.70;99.90
47532;DHT22;33273;52.254;7.988;2023-03-12T17:38:48;7.70;99.90
47532;DHT22;33273;52.254;7.988;2023-03-12T17:41:14;7.70;99.90
47532;DHT22;33273;52.254;7.988;2023-03-12T17:43:39;7.60;99.90
47532;DHT22;33273;52.254;7.988;2023-03-12T17:46:07;7.60;99.90
47532;DHT22;33273;52.254;7.988;2023-03-12T17:48:33;7.60;99.90
47532;DHT22;33273;52.254;7.988;2023-03-12T17:51:09;7.50;99.90
47532;DHT22;33273;52.254;7.988;2023-03-12T17:53:35;7.50;99.90
47532;DHT22;33273;52.254;7.988;2023-03-12T17:56:04;7.50;99.90
47532;DHT22;33273;52.254;7.988;2023-03-12T17:58:30;7.50;99.90